.
WxDataArchive / Data Records for 2009-02-11
2009-02-10 February 2009 2009-02-12

Data Records for Wednesday, 11 February 2009

Time	Temp	Chill	HIndex	Humid	Dewpt	 Wind 	HiWind	WindDir	Rain 	Barom 
-----	----	-----	------	-----	-----	------	------	-------	-----	----- 
00:00	51.1	51.1	51.1	96	50.0	0	2	90	0.00	29.854 
00:05	51.3	51.3	51.3	96	50.2	1	4	90	0.00	29.847 
00:10	51.4	51.4	51.4	96	50.3	1	3	135	0.00	29.843 
00:15	51.4	51.4	51.4	96	50.3	1	3	135	0.00	29.841 
00:20	51.6	51.6	51.6	96	50.5	1	2	135	0.00	29.841 
00:25	51.6	51.6	51.6	96	50.5	1	4	112	0.00	29.840 
00:30	51.6	51.6	51.6	96	50.5	1	3	112	0.00	29.840 
00:35	51.6	51.6	51.6	96	50.5	1	2	135	0.00	29.840 
00:40	51.6	51.6	51.6	96	50.5	1	3	90	0.00	29.850 
00:45	51.6	51.6	51.6	96	50.5	1	3	112	0.00	29.854 
00:50	51.7	51.7	51.7	96	50.6	1	3	112	0.00	29.854 
00:55	51.9	51.9	51.9	96	50.8	1	2	112	0.00	29.849 
01:00	52.0	52.0	52.0	96	50.9	1	3	112	0.00	29.844 
01:05	52.2	52.2	52.2	96	51.1	1	3	135	0.00	29.838 
01:10	52.2	52.2	52.2	96	51.1	2	4	112	0.00	29.837 
01:15	52.3	52.3	52.3	96	51.2	1	2	112	0.00	29.832 
01:20	52.3	52.3	52.3	96	51.2	1	3	112	0.00	29.832 
01:25	52.3	52.3	52.3	96	51.2	1	4	112	0.00	29.829 
01:30	52.3	52.3	52.3	96	51.2	1	3	112	0.00	29.833 
01:35	52.5	52.5	52.5	96	51.4	1	3	112	0.00	29.834 
01:40	52.5	52.5	52.5	96	51.4	1	2	112	0.00	29.836 
01:45	52.5	52.5	52.5	96	51.4	1	3	112	0.00	29.835 
01:50	52.6	52.6	52.6	96	51.5	1	3	90	0.00	29.833 
01:55	52.6	52.6	52.6	96	51.5	1	3	112	0.00	29.830 
02:00	52.6	52.6	52.6	96	51.5	1	3	90	0.00	29.827 
02:05	52.6	52.6	52.6	96	51.5	1	3	112	0.00	29.826 
02:10	52.6	52.6	52.6	96	51.5	1	3	112	0.00	29.823 
02:15	52.6	52.6	52.6	96	51.5	1	2	112	0.00	29.822 
02:20	52.6	52.6	52.6	96	51.5	1	3	112	0.00	29.821 
02:25	52.5	52.5	52.5	96	51.4	1	2	135	0.00	29.818 
02:30	52.5	52.5	52.5	96	51.4	1	3	112	0.01	29.818 
02:35	52.3	52.3	52.3	96	51.2	0	2	90	0.00	29.817 
02:40	52.2	52.2	52.2	96	51.1	0	2	112	0.01	29.815 
02:45	52.0	52.0	52.0	96	50.9	0	2	112	0.01	29.808 
02:50	51.9	51.9	51.9	96	50.8	0	2	112	0.00	29.808 
02:55	51.7	51.7	51.7	96	50.6	0	2	112	0.00	29.807 
03:00	51.6	51.6	51.6	96	50.5	0	1	112	0.00	29.805 
03:05	51.4	51.4	51.4	96	50.3	0	1	112	0.00	29.804 
03:10	51.4	51.4	51.4	96	50.3	0	1	112	0.00	29.804 
03:15	51.4	51.4	51.4	96	50.3	0	2	112	0.00	29.803 
03:20	51.4	51.4	51.4	96	50.3	0	1	112	0.00	29.800 
03:25	51.4	51.4	51.4	96	50.3	0	1	112	0.00	29.801 
03:30	51.4	51.4	51.4	96	50.3	0	2	112	0.00	29.802 
03:35	51.4	51.4	51.4	96	50.3	0	2	112	0.00	29.798 
03:40	51.4	51.4	51.4	96	50.3	0	2	112	0.01	29.794 
03:45	51.6	51.6	51.6	96	50.5	0	3	112	0.03	29.789 
03:50	51.6	51.6	51.6	96	50.5	0	2	112	0.03	29.788 
03:55	51.4	51.4	51.4	96	50.3	0	1	112	0.02	29.792 
04:00	51.4	51.4	51.4	96	50.3	0	0	---	0.01	29.779 
04:05	51.4	51.4	51.4	97	50.6	0	0	---	0.01	29.776 
04:10	51.3	51.3	51.3	97	50.5	0	3	112	0.01	29.767 
04:15	51.4	51.4	51.4	97	50.6	1	2	112	0.01	29.765 
04:20	51.4	51.4	51.4	97	50.6	0	2	135	0.01	29.764 
04:25	51.4	51.4	51.4	97	50.6	0	2	90	0.01	29.763 
04:30	51.3	51.3	51.3	97	50.5	0	2	90	0.00	29.750 
04:35	51.3	51.3	51.3	97	50.5	0	2	90	0.01	29.750 
04:40	51.3	51.3	51.3	97	50.5	1	2	112	0.00	29.747 
04:45	51.3	51.3	51.3	96	50.2	1	2	112	0.01	29.747 
04:50	51.3	51.3	51.3	97	50.5	1	3	112	0.00	29.750 
04:55	51.3	51.3	51.3	97	50.5	1	3	112	0.01	29.745 
05:00	51.3	51.3	51.3	97	50.5	1	3	112	0.00	29.746 
05:05	51.4	51.4	51.4	97	50.6	1	4	112	0.00	29.748 
05:10	51.4	51.4	51.4	97	50.6	1	3	90	0.01	29.750 
05:15	51.4	51.4	51.4	97	50.6	1	5	112	0.00	29.748 
05:20	51.6	51.6	51.6	97	50.8	1	3	90	0.03	29.743 
05:25	51.6	51.6	51.6	97	50.8	1	4	112	0.02	29.736 
05:30	51.7	51.7	51.7	97	50.9	0	1	112	0.02	29.727 
05:35	51.6	51.6	51.6	97	50.8	0	1	112	0.01	29.716 
05:40	51.6	51.6	51.6	97	50.8	0	0	---	0.00	29.715 
05:45	51.6	51.6	51.6	97	50.8	0	1	112	0.00	29.717 
05:50	51.6	51.6	51.6	97	50.8	0	2	112	0.01	29.716 
05:55	51.6	51.6	51.6	97	50.8	0	2	135	0.00	29.715 
06:00	51.4	51.4	51.4	97	50.6	0	1	135	0.01	29.712 
06:05	51.4	51.4	51.4	97	50.6	0	2	135	0.01	29.717 
06:10	51.4	51.4	51.4	97	50.6	1	3	135	0.01	29.708 
06:15	51.4	51.4	51.4	97	50.6	1	3	112	0.01	29.701 
06:20	51.4	51.4	51.4	97	50.6	1	2	112	0.02	29.698 
06:25	51.4	51.4	51.4	97	50.6	0	3	112	0.01	29.697 
06:30	51.4	51.4	51.4	97	50.6	1	2	135	0.01	29.698 
06:35	51.6	51.6	51.6	97	50.8	1	2	112	0.02	29.698 
06:40	51.6	51.6	51.6	97	50.8	0	2	90	0.03	29.691 
06:45	51.6	51.6	51.6	97	50.8	0	2	90	0.02	29.686 
06:50	51.6	51.6	51.6	97	50.8	0	2	90	0.02	29.683 
06:55	51.7	51.7	51.7	97	50.9	0	2	90	0.01	29.676 
07:00	51.9	51.9	51.9	97	51.1	1	3	90	0.01	29.671 
07:05	51.9	51.9	51.9	97	51.1	1	3	90	0.02	29.673 
07:10	51.7	51.7	51.7	97	50.9	0	2	112	0.01	29.674 
07:15	51.6	51.6	51.6	97	50.8	1	3	112	0.01	29.670 
07:20	51.7	51.7	51.7	97	50.9	1	4	112	0.02	29.668 
07:25	51.6	51.6	51.6	97	50.8	1	3	112	0.02	29.668 
07:30	51.6	51.6	51.6	97	50.8	1	3	158	0.02	29.670 
07:35	51.6	51.6	51.6	97	50.8	1	4	112	0.01	29.668 
07:40	51.6	51.6	51.6	97	50.8	1	5	112	0.01	29.664 
07:45	51.6	51.6	51.6	97	50.8	2	6	112	0.02	29.655 
07:50	51.6	51.6	51.6	97	50.8	2	6	90	0.01	29.652 
07:55	51.6	51.6	51.6	97	50.8	1	4	112	0.01	29.651 
08:00	51.4	51.4	51.4	97	50.6	2	6	90	0.01	29.648 
08:05	51.3	51.3	51.3	97	50.5	1	3	112	0.00	29.646 
08:10	51.3	51.3	51.3	97	50.5	1	3	112	0.00	29.642 
08:15	51.1	51.1	51.1	97	50.3	1	3	135	0.01	29.642 
08:20	51.1	51.1	51.1	97	50.3	1	3	90	0.00	29.629 
08:25	51.0	51.0	51.0	97	50.2	1	3	135	0.01	29.627 
08:30	51.1	51.1	51.1	97	50.3	1	3	135	0.02	29.628 
08:35	51.1	51.1	51.1	97	50.3	1	4	112	0.01	29.624 
08:40	51.3	51.3	51.3	97	50.5	1	4	135	0.01	29.620 
08:45	51.4	51.4	51.4	97	50.6	2	6	135	0.02	29.624 
08:50	51.6	51.6	51.6	97	50.8	1	3	90	0.05	29.619 
08:55	51.7	51.7	51.7	97	50.9	0	2	158	0.02	29.615 
09:00	51.7	51.7	51.7	97	50.9	0	1	158	0.03	29.609 
09:05	51.7	51.7	51.7	97	50.9	0	1	158	0.02	29.609 
09:10	51.7	51.7	51.7	97	50.9	0	1	158	0.03	29.606 
09:15	51.6	51.6	51.6	97	50.8	0	1	158	0.01	29.599 
09:20	51.7	51.7	51.7	97	50.9	0	0	---	0.03	29.606 
09:25	51.7	51.7	51.7	97	50.9	0	1	158	0.02	29.602 
09:30	51.7	51.7	51.7	97	50.9	0	1	158	0.01	29.602 
09:35	51.7	51.7	51.7	97	50.9	0	1	158	0.00	29.604 
09:40	51.9	51.9	51.9	97	51.1	1	4	158	0.00	29.598 
09:45	52.0	52.0	52.0	97	51.2	1	3	112	0.01	29.586 
09:50	52.2	52.2	52.2	98	51.7	1	3	112	0.00	29.591 
09:55	52.2	52.2	52.2	98	51.7	2	5	90	0.00	29.585 
10:00	52.3	52.3	52.3	97	51.5	2	4	90	0.00	29.579 
10:05	52.3	52.3	52.3	97	51.5	3	10	90	0.02	29.578 
10:10	52.3	52.3	52.3	97	51.5	2	5	112	0.03	29.571 
10:15	52.3	52.3	52.3	97	51.5	2	5	112	0.01	29.567 
10:20	52.5	52.5	52.5	97	51.7	2	6	112	0.01	29.564 
10:25	52.5	52.5	52.5	97	51.7	2	5	112	0.02	29.562 
10:30	52.5	52.5	52.5	97	51.7	2	5	112	0.01	29.561 
10:35	52.5	52.5	52.5	97	51.7	1	3	112	0.01	29.555 
10:40	52.5	52.5	52.5	97	51.7	1	3	112	0.02	29.547 
10:45	52.5	52.5	52.5	97	51.7	1	4	135	0.02	29.555 
10:50	52.5	52.5	52.5	97	51.7	0	2	270	0.00	29.556 
10:55	52.5	52.5	52.5	97	51.7	0	2	270	0.00	29.560 
11:00	52.5	52.5	52.5	97	51.7	0	3	270	0.00	29.555 
11:05	52.5	52.5	52.5	97	51.7	0	0	---	0.00	29.545 
11:10	52.3	52.3	52.3	97	51.5	1	5	270	0.01	29.532 
11:15	52.6	52.6	52.6	97	51.8	2	5	112	0.00	29.532 
11:20	52.8	52.8	52.8	97	52.0	2	9	90	0.00	29.528 
11:25	52.9	52.9	52.9	97	52.1	3	6	90	0.00	29.521 
11:30	53.2	53.2	53.2	97	52.4	2	7	112	0.01	29.513 
11:35	53.3	53.3	53.3	97	52.5	2	6	90	0.00	29.513 
11:40	53.5	53.5	53.5	97	52.7	2	6	90	0.00	29.512 
11:45	53.6	53.6	53.6	97	52.8	3	9	90	0.00	29.508 
11:50	53.6	53.6	53.6	97	52.8	2	7	90	0.00	29.510 
11:55	53.8	53.8	53.8	97	53.0	3	9	90	0.01	29.509 
12:00	54.2	54.2	54.2	97	53.4	3	7	270	0.01	29.510 
12:05	54.5	54.5	54.5	96	53.4	3	9	270	0.00	29.508 
12:10	54.7	54.7	54.7	96	53.6	3	9	45	0.01	29.501 
12:15	54.8	54.8	54.8	96	53.7	2	6	248	0.00	29.497 
12:20	54.8	54.8	54.8	96	53.7	3	7	112	0.01	29.490 
12:25	54.8	54.8	54.8	96	53.7	4	11	90	0.00	29.482 
12:30	54.8	54.8	54.8	95	53.4	3	10	90	0.00	29.480 
12:35	54.8	54.8	54.8	95	53.4	3	7	90	0.01	29.480 
12:40	55.0	55.0	55.0	95	53.6	3	6	90	0.00	29.478 
12:45	55.0	55.0	55.0	95	53.6	3	6	90	0.00	29.478 
12:50	55.1	55.1	55.1	95	53.7	3	11	90	0.00	29.465 
12:55	55.1	55.1	55.1	95	53.7	2	6	90	0.01	29.462 
13:00	55.1	55.1	55.1	95	53.7	2	9	90	0.00	29.463 
13:05	55.1	55.1	55.1	94	53.4	2	6	90	0.01	29.458 
13:10	55.1	55.1	55.1	95	53.7	2	6	292	0.01	29.451 
13:15	55.1	55.1	55.1	95	53.7	2	7	90	0.01	29.445 
13:20	55.3	55.3	55.3	95	53.9	2	7	90	0.01	29.439 
13:25	55.4	55.4	55.4	95	54.0	2	5	90	0.00	29.432 
13:30	55.4	55.4	55.4	95	54.0	2	6	90	0.01	29.424 
13:35	55.6	55.6	55.6	95	54.2	3	6	90	0.00	29.417 
13:40	55.6	55.6	55.6	95	54.2	3	10	68	0.00	29.412 
13:45	55.6	55.6	55.6	95	54.2	2	4	90	0.01	29.403 
13:50	55.6	55.6	55.6	94	53.9	2	5	90	0.00	29.406 
13:55	55.6	55.6	55.6	94	53.9	2	9	135	0.00	29.404 
14:00	55.6	55.6	55.6	94	53.9	3	13	68	0.01	29.398 
14:05	55.6	55.6	55.6	94	53.9	2	7	292	0.00	29.396 
14:10	55.4	55.4	55.4	94	53.7	2	6	68	0.00	29.394 
14:15	55.4	55.4	55.4	94	53.7	2	4	90	0.01	29.390 
14:20	55.4	55.4	55.4	94	53.7	2	5	112	0.00	29.390 
14:25	55.3	55.3	55.3	94	53.6	1	3	90	0.01	29.385 
14:30	55.3	55.3	55.3	95	53.9	2	5	90	0.01	29.384 
14:35	55.4	55.4	55.4	95	54.0	2	6	112	0.01	29.382 
14:40	55.3	55.3	55.3	95	53.9	2	5	112	0.01	29.368 
14:45	55.3	55.3	55.3	95	53.9	1	3	90	0.01	29.364 
14:50	55.3	55.3	55.3	95	53.9	1	3	112	0.01	29.367 
14:55	55.1	55.1	55.1	95	53.7	1	3	90	0.02	29.371 
15:00	55.1	55.1	55.1	95	53.7	1	5	112	0.02	29.372 
15:05	55.1	55.1	55.1	95	53.7	1	3	270	0.02	29.368 
15:10	55.1	55.1	55.1	95	53.7	0	3	270	0.02	29.362 
15:15	55.1	55.1	55.1	95	53.7	1	3	270	0.02	29.353 
15:20	55.1	55.1	55.1	95	53.7	2	6	90	0.02	29.352 
15:25	55.1	55.1	55.1	96	54.0	0	2	315	0.02	29.353 
15:30	55.1	55.1	55.1	96	54.0	0	1	315	0.01	29.335 
15:35	55.0	55.0	55.0	96	53.9	0	1	315	0.01	29.327 
15:40	55.0	55.0	55.0	96	53.9	0	1	315	0.02	29.321 
15:45	54.8	54.8	54.8	96	53.7	0	1	315	0.02	29.311 
15:50	54.7	54.7	54.7	96	53.6	0	0	---	0.02	29.311 
15:55	54.7	54.7	54.7	96	53.6	0	0	---	0.03	29.318 
16:00	54.7	54.7	54.7	96	53.6	0	1	315	0.06	29.331 
16:05	54.5	54.5	54.5	96	53.4	0	1	315	0.03	29.337 
16:10	54.5	54.5	54.5	96	53.4	1	2	270	0.07	29.345 
16:15	54.7	54.7	54.7	96	53.6	0	3	270	0.03	29.337 
16:20	54.7	54.7	54.7	96	53.6	1	9	248	0.02	29.337 
16:25	54.5	54.5	54.5	96	53.4	1	3	270	0.01	29.323 
16:30	54.4	54.4	54.4	96	53.3	0	2	270	0.03	29.313 
16:35	54.2	54.2	54.2	96	53.1	1	2	270	0.02	29.306 
16:40	54.1	54.1	54.1	96	53.0	1	5	270	0.01	29.297 
16:45	53.9	53.9	53.9	96	52.8	0	2	90	0.02	29.288 
16:50	53.6	53.6	53.6	95	52.2	3	12	90	0.02	29.275 
16:55	53.3	53.3	53.3	95	51.9	3	7	112	0.01	29.215 
17:00	53.2	53.2	53.2	95	51.8	1	4	112	0.00	29.247 
17:05	53.2	53.2	53.2	94	51.5	1	4	112	0.00	29.235 
17:10	53.3	53.3	53.3	94	51.6	1	3	112	0.00	29.227 
17:15	53.6	53.6	53.6	94	51.9	0	2	112	0.00	29.223 
17:20	53.8	53.8	53.8	94	52.1	0	2	112	0.00	29.229 
17:25	53.6	53.6	53.6	93	51.6	0	3	112	0.00	29.229 
17:30	53.5	53.5	53.5	93	51.5	1	3	112	0.00	29.228 
17:35	53.2	53.2	53.2	93	51.2	0	2	112	0.00	29.231 
17:40	52.9	52.9	52.9	93	50.9	1	2	90	0.00	29.243 
17:45	52.8	52.8	52.8	93	50.8	1	3	112	0.00	29.232 
17:50	52.5	52.5	52.5	93	50.5	1	3	112	0.00	29.234 
17:55	52.3	52.3	52.3	93	50.3	1	4	112	0.00	29.242 
18:00	52.2	52.2	52.2	93	50.2	2	6	90	0.00	29.242 
18:05	52.2	52.2	52.2	92	49.9	3	6	135	0.00	29.239 
18:10	52.2	52.2	52.2	92	49.9	2	5	112	0.00	29.231 
18:15	52.0	52.0	52.0	91	49.5	3	6	135	0.00	29.261 
18:20	51.0	51.0	51.0	85	46.7	9	20	270	0.02	29.265 
18:25	49.6	47.7	49.6	85	45.3	5	9	270	0.01	29.261 
18:30	49.2	47.9	49.2	85	44.9	4	12	248	0.00	29.252 
18:35	49.1	49.1	49.1	85	44.8	3	9	248	0.00	29.252 
18:40	49.2	47.9	49.2	85	44.9	4	12	270	0.00	29.258 
18:45	49.6	47.7	49.6	84	45.0	5	12	270	0.00	29.253 
18:50	50.1	50.1	50.1	81	44.5	6	14	270	0.00	29.252 
18:55	50.1	50.1	50.1	80	44.2	5	16	270	0.00	29.249 
19:00	49.9	48.1	49.9	80	44.0	5	13	248	0.00	29.246 
19:05	49.6	48.4	49.6	80	43.7	4	12	248	0.00	29.248 
19:10	49.4	47.5	49.4	80	43.5	5	14	270	0.01	29.247 
19:15	49.1	47.8	49.1	81	43.5	4	11	248	0.00	29.237 
19:20	48.8	47.5	48.8	82	43.6	4	13	270	0.00	29.239 
19:25	48.6	47.3	48.6	83	43.7	4	13	270	0.00	29.234 
19:30	48.3	46.9	48.3	84	43.7	4	13	270	0.01	29.228 
19:35	48.0	46.6	48.0	85	43.7	4	9	248	0.00	29.222 
19:40	47.9	46.4	47.9	85	43.6	4	15	248	0.00	29.220 
19:45	47.7	47.7	47.7	87	44.0	3	9	248	0.00	29.219 
19:50	47.4	47.4	47.4	88	44.0	2	11	225	0.01	29.217 
19:55	47.3	47.3	47.3	88	43.9	1	6	270	0.00	29.207 
20:00	47.1	47.1	47.1	89	44.0	2	7	248	0.00	29.204 
20:05	47.0	47.0	47.0	89	43.9	2	6	248	0.00	29.202 
20:10	47.0	47.0	47.0	90	44.2	2	5	112	0.00	29.200 
20:15	46.8	46.8	46.8	90	44.0	1	4	248	0.00	29.195 
20:20	46.7	46.7	46.7	90	43.9	1	3	270	0.01	29.192 
20:25	46.7	46.7	46.7	91	44.2	1	5	292	0.00	29.192 
20:30	46.7	46.7	46.7	91	44.2	2	5	248	0.00	29.192 
20:35	46.5	46.5	46.5	91	44.0	1	4	248	0.00	29.191 
20:40	46.5	46.5	46.5	91	44.0	1	5	248	0.00	29.191 
20:45	46.5	46.5	46.5	92	44.3	2	4	248	0.00	29.196 
20:50	46.5	46.5	46.5	92	44.3	3	6	248	0.01	29.193 
20:55	44.5	40.1	44.5	88	41.2	8	24	270	0.00	29.222 
21:00	42.5	37.6	42.5	88	39.2	8	18	270	0.00	29.240 
21:05	41.6	37.7	41.6	88	38.3	6	18	270	0.01	29.253 
21:10	41.1	35.9	41.1	89	38.1	8	19	270	0.00	29.258 
21:15	40.3	35.0	40.3	89	37.3	8	12	270	0.00	29.273 
21:20	39.8	33.8	39.8	88	36.5	9	20	270	0.01	29.288 
21:25	39.5	34.0	39.5	89	36.5	8	15	270	0.00	29.302 
21:30	39.3	33.2	39.3	89	36.3	9	20	270	0.00	29.318 
21:35	39.3	33.7	39.3	89	36.3	8	18	270	0.01	29.326 
21:40	39.5	34.0	39.5	90	36.8	8	23	270	0.00	29.337 
21:45	39.9	34.5	39.9	89	36.9	8	16	270	0.00	29.355 
21:50	39.9	34.0	39.9	89	36.9	9	16	270	0.01	29.365 
21:55	39.6	33.6	39.6	89	36.6	9	16	270	0.01	29.382 
22:00	38.9	32.7	38.9	88	35.7	9	20	270	0.00	29.401 
22:05	37.8	30.5	37.8	88	34.6	11	20	270	0.01	29.415 
22:10	37.2	30.2	37.2	89	34.3	10	20	270	0.01	29.431 
22:15	36.3	29.5	36.3	89	33.4	9	22	270	0.02	29.439 
22:20	35.8	30.8	35.8	90	33.2	6	14	270	0.00	29.451 
22:25	36.0	30.3	36.0	92	33.9	7	15	270	0.01	29.460 
22:30	36.8	31.9	36.8	92	34.7	6	12	270	0.00	29.464 
22:35	37.5	31.5	37.5	92	35.4	8	16	270	0.00	29.477 
22:40	38.0	32.2	38.0	91	35.6	8	14	270	0.00	29.484 
22:45	38.3	32.5	38.3	91	35.9	8	14	270	0.00	29.496 
22:50	38.5	32.8	38.5	90	35.8	8	13	270	0.01	29.496 
22:55	38.5	32.2	38.5	90	35.8	9	17	270	0.00	29.510 
23:00	38.6	32.9	38.6	88	35.4	8	18	270	0.00	29.525 
23:05	38.8	33.1	38.8	87	35.3	8	16	270	0.00	29.528 
23:10	38.9	34.4	38.9	86	35.1	6	14	292	0.00	29.539 
23:15	39.2	34.2	39.2	86	35.4	7	17	270	0.00	29.550 
23:20	39.3	33.7	39.3	85	35.2	8	18	270	0.00	29.557 
23:25	39.2	33.6	39.2	84	34.8	8	16	270	0.00	29.559 
23:30	39.1	34.1	39.1	84	34.7	7	12	270	0.00	29.570 
23:35	38.8	33.7	38.8	84	34.4	7	13	270	0.00	29.572 
23:40	38.5	32.8	38.5	84	34.1	8	18	270	0.00	29.583 
23:45	38.0	31.2	38.0	84	33.6	10	23	270	0.00	29.589 
23:50	37.8	32.5	37.8	84	33.4	7	19	270	0.00	29.590 
23:55	37.5	31.5	37.5	84	33.1	8	20	270	0.00	29.603 

CoCoRaHS
IN-AL-39
A2 Web Hosting
Creative Commons License
GoDaddy
search engine by freefind advanced

loaded 2018-11-12 19:36:45 • last modified 2010-11-18 10:43:29
Privacy PolicyDisclaimer
• wx.awcolley.com is powered by PmWiki v.2002016 •
• all content (unless otherwise noted) © 2018 A W Colley